Lochearnhead, United Kingdom
Current Conditions -  °F | °C
As of 4:50 AM on Tuesday 23 Dec 2014 (Local Time) from EGPF Reporting Station
Light Rain Light Rain  
Wind Chill: 39°   Ceiling: 3800
Heat Index: 45°   Visibility: 6mi
Dew Point: 41°   Wind: 10mph
Humidity: 87%   Direction: 250°WSW
Pressure: 29.65"   Gusts: NA
Location:  56.39°N, 4.29°W
Report Text: EGPF 230450Z AUTO 25009KT 9999 -RA OVC038 07/05 Q1004 RERA
Loading
Personal Weather Stations






























Interactive Weather Map New forecast layout! Learn more

10-Day Weather Forecast

Advertisements
Track Severe Weather on mobile